Huntington Beach, California
Current Conditions -  °F | °C
As of 10:53 AM on Friday 24 Oct 2014 (Local Time) from KSNA Reporting Station
Clear Clear  
Wind Chill: 81°   Ceiling: Unl
Heat Index: 81°   Visibility: 10mi
Dew Point: 51°   Wind: 0mph
Humidity: 35%   Direction: NA
Pressure: 29.99"   Gusts: NA
Location:  33.68°N, 118°W
Report Text: KSNA 241753Z 00000KT 10SM CLR 27/11 A2999 RMK AO2 SLP153 T02720106 10272 20167 50002
Loading
Personal Weather Stations






























Interactive Weather Map New forecast layout! Learn more

10-Day Weather Forecast

Advertisements
Track Severe Weather on mobile